Information Last Ob Photographs Calibration Meteogram Network Table Neighbors Monthly Summaries Observation History Wind Roses Custom Wind Roses Data Calendar Satellite Cloud Product Download

Satellite Cloud Product

NESDIS produces a Satellite Cloud Product (SCP) that supplements the ASOS ceilometer readings. This page merges the SCP data with the METAR observations for a given UTC date. Cloud level values are presented in feet above ground level. ECA represents estimated cloud amount expressed in percentage. An IEM Web Service provided the following JSON dataset for this page. Data is available for some sites back to 1993.

Year: Month: Day: Time Order:

 

SCP Valid UTCSatellite East SounderSatellite West SounderASOS METAR Report
Mid CloudsHigh CloudsLevels [ft]ECA [%]Mid CloudsHigh CloudsLevels [ft]ECA [%]Levels ftMETAR
0050ZSCT13000 - 2900012SCT13000 - 2900032FEW@8500
FEW@11000
KHNR 230055Z AUTO 26005G12KT 10SM FEW085 FEW110 20/06 A2972 RMK A01
0150ZSCT13000 - 3000013SCT13000 - 2400032CLR KHNR 230155Z AUTO 32008KT 10SM CLR 15/05 A2974 RMK A01
0250ZSCT13000 - 160003SCT13000 - 3000012FEW@8000
KHNR 230255Z AUTO 00000KT 10SM FEW080 13/04 A2977 RMK A01
0350ZSCT14000 - 150001SCT13000 - 2700014CLR KHNR 230355Z AUTO 00000KT 10SM CLR 12/04 A2978 RMK A01
0450ZSCT13000 - 2400019SCT13000 - 2600033CLR KHNR 230455Z AUTO 00000KT 10SM CLR 10/04 A2979 RMK A01
0550ZSCT13000 - 3000021BKN13000 - 2800029CLR KHNR 230555Z AUTO 01004KT 10SM CLR 07/04 A2980 RMK A01
0650ZSCT13000 - 2500026BKN13000 - 3000041CLR KHNR 230655Z AUTO 00000KT 10SM CLR 07/04 A2980 RMK A01
0750ZOVC13000 - 2800065BKN13000 - 3100053CLR KHNR 230755Z AUTO 00000KT 10SM CLR 06/03 A2979 RMK A01
0850ZBKN13000 - 3000042BKN13000 - 3800048CLR KHNR 230855Z AUTO 35004KT 10SM CLR 05/03 A2978 RMK A01
0950ZBKN13000 - 2900044BKN13000 - 3100045FEW@12000
KHNR 230955Z AUTO 20004KT 10SM FEW120 05/03 A2981 RMK A01
1050ZOVC13000 - 3400071OVC13000 - 3000078BKN@12000
KHNR 231055Z AUTO 00000KT 10SM BKN120 07/03 A2982 RMK A01
1150ZOVC13000 - 2800077OVC13000 - 2100089BKN@9000
BKN@11000
KHNR 231155Z AUTO 33011G16KT 10SM BKN090 BKN110 14/02 A2981 RMK A01
1250ZOVC13000 - 2500073OVC13000 - 2500085FEW@5500
SCT@6500
BKN@9500
KHNR 231255Z AUTO 28009KT 10SM FEW055 SCT065 BKN095 14/01 A2984 RMK A01
1350ZBKN13000 - 3800051BKN13000 - 3000056CLR KHNR 231355Z AUTO 31015KT 10SM CLR 15/01 A2986 RMK A01
1450ZSCT13000 - 3800035SCT13000 - 3000034CLR KHNR 231455Z AUTO 33020G30KT 8SM CLR 16/M02 A2988 RMK A01
1550ZSCT13000 - 270001CLR-0CLR KHNR 231555Z AUTO 31024G32KT 10SM CLR 18/M02 A2989 RMK A01
1650ZCLR-0CLR-0CLR KHNR 231655Z AUTO 31025G31KT 10SM CLR 19/M01 A2990 RMK A01
1750ZCLR-0CLR-0CLR KHNR 231755Z AUTO 31023G29KT 10SM CLR 19/M00 A2992 RMK A01
1850ZCLR-0CLR-0CLR KHNR 231855Z AUTO 31025KT 10SM CLR 19/00 A2992 RMK A01
1950ZCLR-0CLR-0CLR KHNR 231955Z AUTO 32023G29KT 9SM CLR 19/01 A2995 RMK A01